South Fork, Wisconsin
Current Conditions -  °F | °C
As of 8:35 AM on Friday 31 Oct 2014 (Local Time) from KRCX Reporting Station
Clear Clear  
Wind Chill: 19°   Ceiling: Unl
Heat Index: 29°   Visibility: 10mi
Dew Point: 23°   Wind: 12mph
Humidity: 79%   Direction: 350°N
Pressure: 30.43"   Gusts: 22mph
Location:  45.5192°N, 90.7243°W
Report Text: KRCX 311335Z AUTO 35010G19KT 10SM CLR M02/M05 A3043 RMK AO2 T10181050
Loading
Personal Weather Stations






























Interactive Weather Map
Tropical Storm Tracking
New forecast layout! Learn more

10-Day Weather Forecast

Advertisements
Track Severe Weather on mobile